createdAt,value
2023-11-26T00:00:11.886Z,13.70
2023-11-26T00:02:40.597Z,18.93
2023-11-26T00:05:10.053Z,18.47
2023-11-26T00:07:38.459Z,22.47
2023-11-26T00:10:10.365Z,24.60
2023-11-26T00:12:38.574Z,16.90
2023-11-26T00:15:09.728Z,20.37
2023-11-26T00:17:38.055Z,16.43
2023-11-26T00:20:07.931Z,16.70
2023-11-26T00:22:36.255Z,13.07
2023-11-26T00:25:08.956Z,15.10
2023-11-26T00:27:37.139Z,14.97
2023-11-26T00:30:06.308Z,13.53
2023-11-26T00:32:36.063Z,14.70
2023-11-26T00:35:05.139Z,17.73
2023-11-26T00:37:34.079Z,18.23
2023-11-26T00:40:02.265Z,15.20
2023-11-26T00:42:31.979Z,15.33
2023-11-26T00:45:00.556Z,15.30
2023-11-26T00:47:29.361Z,15.73
2023-11-26T00:50:02.228Z,18.33
2023-11-26T00:52:32.908Z,19.50
2023-11-26T00:55:01.127Z,15.53
2023-11-26T00:57:29.323Z,14.63
2023-11-26T00:59:58.910Z,12.73
2023-11-26T01:02:30.806Z,19.90
2023-11-26T01:04:59.494Z,17.73
2023-11-26T01:07:31.426Z,16.93
2023-11-26T01:09:59.976Z,19.03
2023-11-26T01:12:28.895Z,12.30
2023-11-26T01:14:58.733Z,16.40
2023-11-26T01:17:27.056Z,18.77
2023-11-26T01:19:55.522Z,15.07
2023-11-26T01:22:25.942Z,9.50
2023-11-26T01:24:54.299Z,12.27
2023-11-26T01:27:22.538Z,17.93
2023-11-26T01:29:50.986Z,18.37
2023-11-26T01:32:21.300Z,16.33
2023-11-26T01:34:49.720Z,16.17
2023-11-26T01:37:18.052Z,20.23
2023-11-26T01:39:46.347Z,20.40
2023-11-26T01:42:14.576Z,19.07
2023-11-26T01:44:42.738Z,17.10
2023-11-26T01:47:11.703Z,16.30
2023-11-26T01:49:41.616Z,20.87
2023-11-26T01:52:12.987Z,18.40
2023-11-26T01:54:44.726Z,18.43
2023-11-26T01:57:15.885Z,27.37
2023-11-26T01:59:44.578Z,18.70
2023-11-26T02:02:12.850Z,18.93
2023-11-26T02:04:43.464Z,16.50
2023-11-26T02:07:11.993Z,19.57
2023-11-26T02:09:40.240Z,18.33
2023-11-26T02:12:12.101Z,17.43
2023-11-26T02:14:40.235Z,21.10
2023-11-26T02:17:11.315Z,20.53
2023-11-26T02:19:42.821Z,17.50
2023-11-26T02:22:11.051Z,19.77
2023-11-26T02:24:43.477Z,19.40
2023-11-26T02:27:12.389Z,14.80
2023-11-26T02:29:41.955Z,19.17
2023-11-26T02:32:10.928Z,16.07
2023-11-26T02:34:39.472Z,18.93
2023-11-26T02:37:08.009Z,20.73
2023-11-26T02:39:36.205Z,21.73
2023-11-26T02:42:06.154Z,18.53
2023-11-26T02:44:35.212Z,18.63
2023-11-26T02:47:04.790Z,25.57
2023-11-26T02:49:33.396Z,24.33
2023-11-26T02:52:01.702Z,28.47
2023-11-26T02:54:29.173Z,20.30
2023-11-26T02:56:57.396Z,22.40
2023-11-26T02:59:26.902Z,26.10
2023-11-26T03:01:59.578Z,20.47
2023-11-26T03:04:28.224Z,18.53
2023-11-26T03:06:58.623Z,16.57
2023-11-26T03:09:57.995Z,17.97
2023-11-26T03:12:43.385Z,13.10
2023-11-26T03:15:15.318Z,13.10
2023-11-26T03:17:43.989Z,20.10
2023-11-26T03:20:17.693Z,16.67
2023-11-26T03:22:46.121Z,23.93
2023-11-26T03:25:14.528Z,21.13
2023-11-26T03:27:42.676Z,14.23
2023-11-26T03:30:13.651Z,11.70
2023-11-26T03:32:42.537Z,10.80
2023-11-26T03:35:11.421Z,12.93
2023-11-26T03:37:41.486Z,16.83
2023-11-26T03:40:12.038Z,10.13
2023-11-26T03:42:40.445Z,13.10
2023-11-26T03:45:09.796Z,13.47
2023-11-26T03:47:40.137Z,21.77
2023-11-26T03:50:10.950Z,17.77
2023-11-26T03:52:40.322Z,12.63
2023-11-26T03:55:10.163Z,11.33
2023-11-26T03:57:39.090Z,12.13
2023-11-26T04:00:09.809Z,11.57
2023-11-26T04:02:39.783Z,5.93
2023-11-26T04:05:10.422Z,9.43
2023-11-26T04:07:39.835Z,11.40
2023-11-26T04:10:10.938Z,11.37
2023-11-26T04:12:40.149Z,11.53
2023-11-26T04:15:10.281Z,9.90
2023-11-26T04:17:39.999Z,8.40
2023-11-26T04:20:10.076Z,11.87
2023-11-26T04:22:38.250Z,14.23
2023-11-26T04:25:07.641Z,10.47
2023-11-26T04:27:35.919Z,13.87
2023-11-26T04:30:05.638Z,8.00
2023-11-26T04:32:34.858Z,13.07
2023-11-26T04:35:07.205Z,12.73
2023-11-26T04:37:36.333Z,17.63
2023-11-26T04:40:06.831Z,12.80
2023-11-26T04:42:35.055Z,11.83
2023-11-26T04:45:03.992Z,15.97
2023-11-26T04:47:32.259Z,18.03
2023-11-26T04:50:00.674Z,13.93
2023-11-26T04:52:30.289Z,11.23
2023-11-26T04:54:58.591Z,20.97
2023-11-26T04:57:26.761Z,15.97
2023-11-26T04:59:54.879Z,17.20
2023-11-26T05:02:23.400Z,18.10
2023-11-26T05:04:52.921Z,14.63
2023-11-26T05:07:21.108Z,18.63
2023-11-26T05:09:50.682Z,18.23
2023-11-26T05:12:18.951Z,18.90
2023-11-26T05:14:47.178Z,15.97
2023-11-26T05:17:16.896Z,18.97
2023-11-26T05:19:46.340Z,31.90
2023-11-26T05:22:14.576Z,21.00
2023-11-26T05:24:42.879Z,20.40
2023-11-26T05:27:12.459Z,17.23
2023-11-26T05:29:40.627Z,22.60
2023-11-26T05:32:08.816Z,18.70
2023-11-26T05:34:37.928Z,20.27
2023-11-26T05:37:06.161Z,24.97
2023-11-26T05:39:34.433Z,23.13
2023-11-26T05:42:02.596Z,26.90
2023-11-26T05:44:32.556Z,25.03
2023-11-26T05:46:59.832Z,24.03
2023-11-26T05:49:28.755Z,24.03
2023-11-26T05:51:59.369Z,21.67
2023-11-26T05:54:27.937Z,20.37
2023-11-26T05:56:56.065Z,27.97
2023-11-26T05:59:24.248Z,25.53
2023-11-26T06:01:52.863Z,26.33
2023-11-26T06:04:20.995Z,33.13
2023-11-26T06:06:49.219Z,26.37
2023-11-26T06:09:17.473Z,30.35
2023-11-26T06:11:46.163Z,35.77
2023-11-26T06:14:14.431Z,33.80
2023-11-26T06:16:43.965Z,31.03
2023-11-26T06:19:13.718Z,32.00
2023-11-26T06:21:41.970Z,28.73
2023-11-26T06:24:11.191Z,25.47
2023-11-26T06:26:41.704Z,29.30
2023-11-26T06:29:12.398Z,19.10
2023-11-26T06:31:40.713Z,26.40
2023-11-26T06:34:09.451Z,23.30
2023-11-26T06:36:39.103Z,22.93
2023-11-26T06:39:07.939Z,20.90
2023-11-26T06:41:39.960Z,25.33
2023-11-26T06:44:08.776Z,23.17
2023-11-26T06:46:37.067Z,25.83
2023-11-26T06:49:05.767Z,26.50
2023-11-26T06:51:34.166Z,26.10
2023-11-26T06:54:03.759Z,21.30
2023-11-26T06:56:33.156Z,29.33
2023-11-26T06:59:01.412Z,26.30
2023-11-26T07:01:29.633Z,22.33
2023-11-26T07:03:58.078Z,26.20
2023-11-26T07:06:26.521Z,28.63
2023-11-26T07:08:54.745Z,23.47
2023-11-26T07:11:25.467Z,23.73
2023-11-26T07:13:53.894Z,23.53
2023-11-26T07:16:23.621Z,20.60
2023-11-26T07:18:52.232Z,22.27
2023-11-26T07:21:20.974Z,29.60
2023-11-26T07:23:49.282Z,27.30
2023-11-26T07:26:22.276Z,23.93
2023-11-26T07:28:52.617Z,24.50
2023-11-26T07:31:21.672Z,26.67
2023-11-26T07:33:50.866Z,28.07
2023-11-26T07:36:24.999Z,24.90
2023-11-26T07:38:54.151Z,29.83
2023-11-26T07:41:22.674Z,26.50
2023-11-26T07:43:53.083Z,26.53
2023-11-26T07:46:22.593Z,23.87
2023-11-26T07:48:51.535Z,35.83
2023-11-26T07:51:20.230Z,33.60
2023-11-26T07:53:48.491Z,28.27
2023-11-26T07:56:17.808Z,22.47
2023-11-26T07:58:46.622Z,21.90
2023-11-26T08:01:16.644Z,26.90
2023-11-26T08:03:45.443Z,17.70
2023-11-26T08:06:15.302Z,18.17
2023-11-26T08:08:45.107Z,16.53
2023-11-26T08:11:14.401Z,26.13
2023-11-26T08:13:43.304Z,21.50
2023-11-26T08:16:15.032Z,20.17
2023-11-26T08:18:45.004Z,23.00
2023-11-26T08:21:13.368Z,28.10
2023-11-26T08:23:45.481Z,23.77
2023-11-26T08:26:17.033Z,20.10
2023-11-26T08:28:45.742Z,17.97
2023-11-26T08:31:14.288Z,17.83
2023-11-26T08:33:45.044Z,22.33
2023-11-26T08:36:17.309Z,22.47
2023-11-26T08:38:48.110Z,17.87
2023-11-26T08:41:21.750Z,22.37
2023-11-26T08:43:52.298Z,21.53
2023-11-26T08:46:23.979Z,20.10
2023-11-26T08:48:54.407Z,19.47
2023-11-26T08:51:23.247Z,13.27
2023-11-26T08:53:51.602Z,16.93
2023-11-26T08:56:19.958Z,20.30
2023-11-26T08:58:48.448Z,25.73
2023-11-26T09:01:16.816Z,21.47
2023-11-26T09:03:45.124Z,19.30
2023-11-26T09:06:15.045Z,19.90
2023-11-26T09:08:43.252Z,18.63
2023-11-26T09:11:13.945Z,21.63
2023-11-26T09:13:42.120Z,14.13
2023-11-26T09:16:10.627Z,17.47
2023-11-26T09:18:38.828Z,14.37
2023-11-26T09:21:07.268Z,22.33
2023-11-26T09:23:37.390Z,18.67
2023-11-26T09:26:05.941Z,19.17
2023-11-26T09:28:34.131Z,19.43
2023-11-26T09:31:05.094Z,18.23
2023-11-26T09:33:33.428Z,15.67
2023-11-26T09:36:02.263Z,18.47
2023-11-26T09:38:30.453Z,12.77
2023-11-26T09:40:59.952Z,15.70
2023-11-26T09:43:28.785Z,13.73
2023-11-26T09:45:57.718Z,19.53
2023-11-26T09:48:26.023Z,15.43
2023-11-26T09:50:56.078Z,16.27
2023-11-26T09:53:25.094Z,13.87
2023-11-26T09:55:55.302Z,14.27
2023-11-26T09:58:24.863Z,16.97
2023-11-26T10:00:53.082Z,13.13
2023-11-26T10:03:21.380Z,20.47
2023-11-26T10:05:49.644Z,11.73
2023-11-26T10:08:32.938Z,16.33
2023-11-26T10:11:01.161Z,18.87
2023-11-26T10:13:40.399Z,14.17
2023-11-26T10:16:10.520Z,18.63
2023-11-26T10:18:43.190Z,19.57
2023-11-26T10:21:12.102Z,16.63
2023-11-26T10:23:42.216Z,18.90
2023-11-26T10:26:21.046Z,21.03
2023-11-26T10:29:05.127Z,14.93
2023-11-26T10:31:33.441Z,16.70
2023-11-26T10:34:14.108Z,13.37
2023-11-26T10:36:42.768Z,20.23
2023-11-26T10:39:13.289Z,16.37
2023-11-26T10:41:42.139Z,18.60
2023-11-26T10:44:13.300Z,14.07
2023-11-26T10:46:46.088Z,16.43
2023-11-26T10:49:17.849Z,17.80
2023-11-26T10:51:50.474Z,27.57
2023-11-26T10:54:29.224Z,17.30
2023-11-26T10:57:02.322Z,15.33
2023-11-26T10:59:38.602Z,19.53
2023-11-26T11:02:08.571Z,13.40
2023-11-26T11:04:40.393Z,20.27
2023-11-26T11:07:10.239Z,20.27
2023-11-26T11:09:58.473Z,15.37
2023-11-26T11:12:30.485Z,16.97
2023-11-26T11:15:02.048Z,14.63
2023-11-26T11:17:31.810Z,23.27
2023-11-26T11:20:00.671Z,16.83
2023-11-26T11:22:40.309Z,18.40
2023-11-26T11:25:10.770Z,20.90
2023-11-26T11:27:52.830Z,12.60
2023-11-26T11:30:56.590Z,14.03
2023-11-26T11:33:25.019Z,24.53
2023-11-26T11:35:53.261Z,19.40
2023-11-26T11:38:22.874Z,23.60
2023-11-26T11:41:13.047Z,15.10
2023-11-26T11:43:41.910Z,19.47
2023-11-26T11:46:51.246Z,14.63
2023-11-26T11:49:20.464Z,19.20
2023-11-26T11:51:48.759Z,10.83
2023-11-26T11:54:51.229Z,20.63
2023-11-26T11:57:24.560Z,16.33
2023-11-26T11:59:53.387Z,14.63
2023-11-26T12:02:25.062Z,14.27
2023-11-26T12:04:55.325Z,20.60
2023-11-26T12:07:33.255Z,17.00
2023-11-26T12:10:02.771Z,17.07
2023-11-26T12:12:31.879Z,15.60
2023-11-26T12:15:10.778Z,20.57
2023-11-26T12:17:48.776Z,14.50
2023-11-26T12:20:21.238Z,12.90
2023-11-26T12:22:52.818Z,18.27
2023-11-26T12:25:23.056Z,19.17
2023-11-26T12:28:02.914Z,16.97
2023-11-26T12:30:31.507Z,15.03
2023-11-26T12:33:03.101Z,17.17
2023-11-26T12:35:32.323Z,17.87
2023-11-26T12:38:01.932Z,16.57
2023-11-26T12:40:31.314Z,18.53
2023-11-26T12:43:00.343Z,16.23
2023-11-26T12:45:28.714Z,14.13
2023-11-26T12:47:58.027Z,18.77
2023-11-26T12:50:41.179Z,19.27
2023-11-26T12:53:12.642Z,16.80
2023-11-26T12:55:46.573Z,15.13
2023-11-26T12:58:21.140Z,14.33
2023-11-26T13:00:49.402Z,16.83
2023-11-26T13:03:19.521Z,16.73
2023-11-26T13:05:49.699Z,17.83
2023-11-26T13:08:22.990Z,13.63
2023-11-26T13:10:55.706Z,19.03
2023-11-26T13:13:28.539Z,18.00
2023-11-26T13:15:58.478Z,20.20
2023-11-26T13:18:27.404Z,21.27
2023-11-26T13:20:59.177Z,14.20
2023-11-26T13:23:27.504Z,15.87
2023-11-26T13:25:57.461Z,18.87
2023-11-26T13:28:29.815Z,16.40
2023-11-26T13:31:00.501Z,17.83
2023-11-26T13:33:28.872Z,14.40
2023-11-26T13:36:01.539Z,15.27
2023-11-26T13:38:31.116Z,18.17
2023-11-26T13:40:59.540Z,14.53
2023-11-26T13:43:29.557Z,13.40
2023-11-26T13:45:58.734Z,17.23
2023-11-26T13:48:27.154Z,19.13
2023-11-26T13:50:55.589Z,12.43
2023-11-26T13:53:25.237Z,12.60
2023-11-26T13:55:54.940Z,15.50
2023-11-26T13:58:24.098Z,16.17
2023-11-26T14:00:52.427Z,17.13
2023-11-26T14:03:20.762Z,17.97
2023-11-26T14:05:49.086Z,19.57
2023-11-26T14:08:17.285Z,18.60
2023-11-26T14:10:46.887Z,18.27
2023-11-26T14:13:18.954Z,20.97
2023-11-26T14:15:47.747Z,14.90
2023-11-26T14:18:16.004Z,24.57
2023-11-26T14:20:44.757Z,21.07
2023-11-26T14:23:12.918Z,23.87
2023-11-26T14:25:41.093Z,19.13
2023-11-26T14:28:11.395Z,21.00
2023-11-26T14:30:39.669Z,17.80
2023-11-26T14:33:08.017Z,20.10
2023-11-26T14:35:36.269Z,22.43
2023-11-26T14:38:04.411Z,22.07
2023-11-26T14:40:32.595Z,28.67
2023-11-26T14:43:01.287Z,23.37
2023-11-26T14:45:30.974Z,24.50
2023-11-26T14:47:59.260Z,16.47
2023-11-26T14:50:28.196Z,18.60
2023-11-26T14:52:56.769Z,31.70
2023-11-26T14:55:25.549Z,19.73
2023-11-26T14:57:53.907Z,19.63
2023-11-26T15:00:23.280Z,21.00
2023-11-26T15:02:52.986Z,18.03
2023-11-26T15:05:21.348Z,20.43
2023-11-26T15:07:49.647Z,22.60
2023-11-26T15:10:17.996Z,22.93
2023-11-26T15:12:46.288Z,18.07
2023-11-26T15:15:16.287Z,21.27
2023-11-26T15:17:44.806Z,23.90
2023-11-26T15:20:14.822Z,25.23
2023-11-26T15:22:43.637Z,28.10
2023-11-26T15:25:13.705Z,26.80
2023-11-26T15:27:43.030Z,25.03
2023-11-26T15:30:12.606Z,28.33
2023-11-26T15:32:42.148Z,33.90
2023-11-26T15:35:13.161Z,28.83
2023-11-26T15:37:44.111Z,34.80
2023-11-26T15:40:14.515Z,33.87
2023-11-26T15:42:42.735Z,32.17
2023-11-26T15:45:14.626Z,26.93
2023-11-26T15:47:44.932Z,23.23
2023-11-26T15:50:13.548Z,28.33
2023-11-26T15:52:43.126Z,22.00
2023-11-26T15:55:13.484Z,26.80
2023-11-26T15:57:42.436Z,22.03
2023-11-26T16:00:14.124Z,28.60
2023-11-26T16:02:43.208Z,17.17
2023-11-26T16:05:12.425Z,15.73
2023-11-26T16:07:40.711Z,19.17
2023-11-26T16:10:11.460Z,21.93
2023-11-26T16:12:40.902Z,16.70
2023-11-26T16:15:12.183Z,15.23
2023-11-26T16:17:43.357Z,12.30
2023-11-26T16:20:13.165Z,13.57
2023-11-26T16:22:41.514Z,18.60
2023-11-26T16:25:19.878Z,13.30
2023-11-26T16:27:49.631Z,13.63
2023-11-26T16:30:18.619Z,16.37
2023-11-26T16:32:46.955Z,21.73
2023-11-26T16:35:16.686Z,21.30
2023-11-26T16:37:44.962Z,11.83
2023-11-26T16:40:15.418Z,11.93
2023-11-26T16:42:44.232Z,11.80
2023-11-26T16:45:12.565Z,13.27
2023-11-26T16:47:40.752Z,12.37
2023-11-26T16:50:09.704Z,14.20
2023-11-26T16:52:38.456Z,11.50
2023-11-26T16:55:09.778Z,14.23
2023-11-26T16:57:41.191Z,12.50
2023-11-26T17:00:12.190Z,13.20
2023-11-26T17:02:40.969Z,10.17
2023-11-26T17:05:10.634Z,10.97
2023-11-26T17:07:38.886Z,9.33
2023-11-26T17:10:08.256Z,14.33
2023-11-26T17:12:39.148Z,9.67
2023-11-26T17:15:11.012Z,14.30
2023-11-26T17:17:39.443Z,16.07
2023-11-26T17:20:09.549Z,13.87
2023-11-26T17:22:37.879Z,14.50
2023-11-26T17:25:07.429Z,14.97
2023-11-26T17:27:35.786Z,13.40
2023-11-26T17:30:07.251Z,13.37
2023-11-26T17:32:37.026Z,11.27
2023-11-26T17:35:05.497Z,12.87
2023-11-26T17:37:33.689Z,12.73
2023-11-26T17:40:02.024Z,12.03
2023-11-26T17:42:32.047Z,12.43
2023-11-26T17:45:00.753Z,12.47
2023-11-26T17:47:31.717Z,15.33
2023-11-26T17:50:02.339Z,13.53
2023-11-26T17:52:30.566Z,15.27
2023-11-26T17:54:58.854Z,13.53
2023-11-26T17:57:27.187Z,12.73
2023-11-26T17:59:55.459Z,14.37
2023-11-26T18:02:23.778Z,15.60
2023-11-26T18:04:53.279Z,16.33
2023-11-26T18:07:22.862Z,14.67
2023-11-26T18:09:51.030Z,14.30
2023-11-26T18:12:19.333Z,17.97
2023-11-26T18:14:48.020Z,14.93
2023-11-26T18:17:16.214Z,15.83
2023-11-26T18:19:45.095Z,14.20
2023-11-26T18:22:13.296Z,15.90
2023-11-26T18:24:43.275Z,16.73
2023-11-26T18:27:11.541Z,12.20
2023-11-26T18:29:40.498Z,13.03
2023-11-26T18:32:08.934Z,16.20
2023-11-26T18:34:37.168Z,22.10
2023-11-26T18:37:06.508Z,16.07
2023-11-26T18:39:39.722Z,13.03
2023-11-26T18:42:09.502Z,15.97
2023-11-26T18:44:37.689Z,14.80
2023-11-26T18:47:06.297Z,19.43
2023-11-26T18:49:34.603Z,15.97
2023-11-26T18:52:02.783Z,19.53
2023-11-26T18:54:31.038Z,17.37
2023-11-26T18:56:59.225Z,14.90
2023-11-26T18:59:28.831Z,15.57
2023-11-26T19:01:57.180Z,14.67
2023-11-26T19:04:27.800Z,19.73
2023-11-26T19:06:56.594Z,15.57
2023-11-26T19:09:24.767Z,16.63
2023-11-26T19:11:53.136Z,17.20
2023-11-26T19:14:22.349Z,19.33
2023-11-26T19:16:52.727Z,18.20
2023-11-26T19:19:23.262Z,15.07
2023-11-26T19:21:51.752Z,23.73
2023-11-26T19:24:20.069Z,15.70
2023-11-26T19:26:48.437Z,17.37
2023-11-26T19:29:16.701Z,17.40
2023-11-26T19:31:44.913Z,17.03
2023-11-26T19:34:15.684Z,18.40
2023-11-26T19:36:44.077Z,16.27
2023-11-26T19:39:12.400Z,12.63
2023-11-26T19:41:42.913Z,17.63
2023-11-26T19:44:11.240Z,18.70
2023-11-26T19:46:42.451Z,15.47
2023-11-26T19:49:11.016Z,18.27
2023-11-26T19:51:40.880Z,16.67
2023-11-26T19:54:11.909Z,17.60
2023-11-26T19:56:40.967Z,16.10
2023-11-26T19:59:09.113Z,16.77
2023-11-26T20:01:37.372Z,12.17
2023-11-26T20:04:05.917Z,14.37
2023-11-26T20:06:34.176Z,14.57
2023-11-26T20:09:06.671Z,14.07
2023-11-26T20:11:35.275Z,17.23
2023-11-26T20:14:03.957Z,16.90
2023-11-26T20:16:32.481Z,18.73
2023-11-26T20:19:00.743Z,19.37
2023-11-26T20:21:30.770Z,14.23
2023-11-26T20:23:59.199Z,17.60
2023-11-26T20:26:28.818Z,13.63
2023-11-26T20:28:56.949Z,20.47
2023-11-26T20:31:25.238Z,13.87
2023-11-26T20:33:55.330Z,15.30
2023-11-26T20:36:24.402Z,14.30
2023-11-26T20:38:53.876Z,12.27
2023-11-26T20:41:22.067Z,14.73
2023-11-26T20:43:51.629Z,17.13
2023-11-26T20:46:23.604Z,17.30
2023-11-26T20:48:52.080Z,13.07
2023-11-26T20:51:26.215Z,14.67
2023-11-26T20:53:56.552Z,14.67
2023-11-26T20:56:24.976Z,16.50
2023-11-26T20:58:54.771Z,12.77
2023-11-26T21:01:23.697Z,17.57
2023-11-26T21:03:52.064Z,20.73
2023-11-26T21:06:20.810Z,14.10
2023-11-26T21:08:49.010Z,16.27
2023-11-26T21:11:17.231Z,18.97
2023-11-26T21:13:45.428Z,18.33
2023-11-26T21:16:15.239Z,12.30
2023-11-26T21:18:43.473Z,15.33
2023-11-26T21:21:11.701Z,17.73
2023-11-26T21:23:39.847Z,14.53
2023-11-26T21:26:11.432Z,16.90
2023-11-26T21:28:39.605Z,14.33
2023-11-26T21:31:09.122Z,19.60
2023-11-26T21:33:38.852Z,16.47
2023-11-26T21:36:07.602Z,20.87
2023-11-26T21:38:36.102Z,13.30
2023-11-26T21:41:07.794Z,13.00
2023-11-26T21:43:39.336Z,13.10
2023-11-26T21:46:31.858Z,16.33
2023-11-26T21:49:08.941Z,10.70
2023-11-26T21:51:38.228Z,15.73
2023-11-26T21:54:06.570Z,12.13
2023-11-26T21:56:35.617Z,13.07
2023-11-26T21:59:03.964Z,12.40
2023-11-26T22:01:32.278Z,14.83
2023-11-26T22:04:03.681Z,15.73
2023-11-26T22:06:34.500Z,11.13
2023-11-26T22:09:02.646Z,12.70
2023-11-26T22:11:30.837Z,16.60
2023-11-26T22:13:59.284Z,14.43
2023-11-26T22:16:28.551Z,12.87
2023-11-26T22:18:57.544Z,14.63
2023-11-26T22:21:25.981Z,11.87
2023-11-26T22:23:55.516Z,12.67
2023-11-26T22:26:24.607Z,9.33
2023-11-26T22:28:52.793Z,13.20
2023-11-26T22:31:21.593Z,15.43
2023-11-26T22:33:49.943Z,14.33
2023-11-26T22:36:22.265Z,9.73
2023-11-26T22:38:50.525Z,13.87
2023-11-26T22:41:25.045Z,9.27
2023-11-26T22:43:54.408Z,14.77
2023-11-26T22:46:24.160Z,15.30
2023-11-26T22:48:54.150Z,10.90
2023-11-26T22:51:23.027Z,12.90
2023-11-26T22:53:52.095Z,17.97
2023-11-26T22:56:20.649Z,15.43
2023-11-26T22:58:50.186Z,20.83
2023-11-26T23:01:18.470Z,12.80
2023-11-26T23:03:46.737Z,17.07
2023-11-26T23:06:16.541Z,15.00
2023-11-26T23:08:44.697Z,15.00
2023-11-26T23:11:16.043Z,12.07
2023-11-26T23:13:44.368Z,17.93
2023-11-26T23:16:14.094Z,18.50
2023-11-26T23:18:42.786Z,11.10
2023-11-26T23:21:14.113Z,16.03
2023-11-26T23:23:50.197Z,17.57
2023-11-26T23:26:21.310Z,14.30
2023-11-26T23:28:49.692Z,18.23
2023-11-26T23:31:20.824Z,20.20
2023-11-26T23:33:50.336Z,21.77
2023-11-26T23:36:18.772Z,15.50
2023-11-26T23:38:47.439Z,17.40
2023-11-26T23:41:15.732Z,28.57
2023-11-26T23:43:44.614Z,19.70
2023-11-26T23:46:12.995Z,21.13
2023-11-26T23:48:43.910Z,19.97
2023-11-26T23:51:12.486Z,26.03
2023-11-26T23:53:40.717Z,23.03
2023-11-26T23:56:10.943Z,27.03
2023-11-26T23:58:39.498Z,23.43
